Aérodrome :
LOGIN :

S'inscrire | Disclaimer

   EN    FR    IT 

 










Légende :    VFR   VFR Marginal   IFR   IFR Intensif   IFR Très Intensif
Visi : 
Plafond : 
>= 8 km
>= 3000ft
5 à 8 km
1000 à 3000 ft
1500m à 5 km
500 à 1000 ft
800 à 1500m
200 à 500 ft
< 800m
< 200 ft
Symboles :   Orages  Brouillard  Fortes neiges  Fortes précipitations  Vent > 20 kt
SIGMETs :   Divers  Orages  Givrage  Turbulence  Onde Orograph.  Cendres Volcan.







- Altitude de l'aérodrome : 796 ft
- Code IATA : SYT
- Voir les cartes d'approche


LFLN - Saint-Yan

DERNIER METAR :
  • 270130Z AUTO 00000KT CAVOK 16/16 Q1010

METARs EXPIRÉS :
  • 270100Z AUTO 00000KT CAVOK 16/16 Q1010
  • 270030Z AUTO 18002KT CAVOK 16/16 Q1010
  • 270000Z AUTO 00000KT CAVOK 16/16 Q1010
  • 262330Z AUTO 00000KT CAVOK 16/16 Q1010
  • 262300Z AUTO VRB02KT CAVOK 16/15 Q1010

TAF TAF LFLN
Valide du 26 à 18h jusqu'au 27 à 03h UTC


261700Z 2618/2703 03007KT 9999 SCT045 OVC090
TEMPO 2618/2622 4000 SHRA SCT050CB BKN070
PROB40
TEMPO 2618/2620 20020G30KT 3000 TSRA BKN022 BKN045CB OVC140
BECMG 2622/2624 24006KT SCT035 SCT100
Pas de NOTAMs connus pour ce terrain.



MET'MAP, la Météo Aéronautique d'un coup d'oeil ! - Copyright ORBIFLY Décembre 2007 - Disclaimer

ORBIFLY MET'MAP TEAM :

Programmation & Développement : Alexandra Zaïnal
Conception & Développement : Baudouin d'Aumeries
Co-Programmation & Développement : Marc-Olivier Méhu
Soutien technique & logistique : Manuel Goepfert

Contact : metmap@orbifly.com




SOURCES & CREDITS :

   NOAA